createdAt,value
2022-12-11T00:00:39.967Z,101166.56
2022-12-11T00:03:10.270Z,101163.94
2022-12-11T00:05:41.499Z,101164.69
2022-12-11T00:08:08.710Z,101159.41
2022-12-11T00:10:37.975Z,101152.50
2022-12-11T00:13:05.280Z,101149.84
2022-12-11T00:15:32.119Z,101159.16
2022-12-11T00:17:58.878Z,101165.03
2022-12-11T00:20:25.753Z,101160.66
2022-12-11T00:22:52.557Z,101158.81
2022-12-11T00:25:19.284Z,101157.09
2022-12-11T00:27:47.546Z,101157.03
2022-12-11T00:30:15.235Z,101162.16
2022-12-11T00:32:43.197Z,101168.09
2022-12-11T00:35:10.703Z,101183.47
2022-12-11T00:37:37.607Z,101186.91
2022-12-11T00:40:05.035Z,101187.78
2022-12-11T00:42:31.788Z,101188.69
2022-12-11T00:44:58.493Z,101184.47
2022-12-11T00:47:25.285Z,101188.75
2022-12-11T00:49:52.289Z,101179.44
2022-12-11T00:52:19.046Z,101173.50
2022-12-11T00:54:45.828Z,101176.97
2022-12-11T00:57:12.530Z,101173.56
2022-12-11T00:59:39.596Z,101171.88
2022-12-11T01:02:06.328Z,101172.75
2022-12-11T01:04:35.882Z,101165.09
2022-12-11T01:07:02.889Z,101160.84
2022-12-11T01:09:48.607Z,101171.13
2022-12-11T01:12:15.583Z,101173.75
2022-12-11T01:14:42.338Z,101177.19
2022-12-11T01:17:09.112Z,101177.19
2022-12-11T01:19:35.878Z,101176.38
2022-12-11T01:22:02.651Z,101179.81
2022-12-11T01:24:29.495Z,101184.09
2022-12-11T01:26:56.541Z,101185.84
2022-12-11T01:29:23.625Z,101195.28
2022-12-11T01:31:50.349Z,101194.44
2022-12-11T01:34:17.155Z,101198.75
2022-12-11T01:36:44.037Z,101194.47
2022-12-11T01:39:10.747Z,101190.25
2022-12-11T01:41:37.479Z,101193.66
2022-12-11T01:44:07.262Z,101189.41
2022-12-11T01:46:36.376Z,101193.72
2022-12-11T01:49:07.831Z,101186.00
2022-12-11T01:51:40.585Z,101204.81
2022-12-11T01:54:13.904Z,101206.56
2022-12-11T01:56:43.824Z,101198.91
2022-12-11T01:59:15.259Z,101197.16
2022-12-11T02:01:51.244Z,101208.31
2022-12-11T02:04:20.241Z,101204.91
2022-12-11T02:06:49.285Z,101204.06
2022-12-11T02:09:25.713Z,101195.50
2022-12-11T02:12:29.619Z,101187.81
2022-12-11T02:15:21.288Z,101190.41
2022-12-11T02:17:54.809Z,101190.41
2022-12-11T02:20:39.591Z,101195.56
2022-12-11T02:23:12.935Z,101188.75
2022-12-11T02:26:00.721Z,101185.31
2022-12-11T02:28:51.682Z,101180.19
2022-12-11T02:31:24.020Z,101187.06
2022-12-11T02:34:04.795Z,101179.34
2022-12-11T02:36:40.324Z,101192.16
2022-12-11T02:39:12.517Z,101188.78
2022-12-11T02:41:43.160Z,101184.47
2022-12-11T02:44:14.185Z,101191.34
2022-12-11T02:46:43.182Z,101183.63
2022-12-11T02:49:12.379Z,101187.06
2022-12-11T02:51:42.116Z,101181.91
2022-12-11T02:54:17.135Z,101179.34
2022-12-11T02:56:57.346Z,101176.78
2022-12-11T02:59:45.727Z,101180.22
2022-12-11T03:02:14.632Z,101183.63
2022-12-11T03:04:43.013Z,101183.63
2022-12-11T03:07:17.879Z,101178.50
2022-12-11T03:09:47.455Z,101178.47
2022-12-11T03:12:19.616Z,101174.22
2022-12-11T03:14:46.825Z,101174.22
2022-12-11T03:17:19.062Z,101181.06
2022-12-11T03:20:07.370Z,101185.31
2022-12-11T03:22:40.037Z,101164.78
2022-12-11T03:25:17.566Z,101170.78
2022-12-11T03:27:58.333Z,101166.50
2022-12-11T03:30:28.771Z,101173.34
2022-12-11T03:33:04.683Z,101171.63
2022-12-11T03:35:36.703Z,101175.88
2022-12-11T03:38:09.155Z,101170.69
2022-12-11T03:40:37.107Z,101180.97
2022-12-11T03:43:05.847Z,101175.00
2022-12-11T03:45:33.819Z,101176.72
2022-12-11T03:48:02.966Z,101184.41
2022-12-11T03:50:32.497Z,101174.13
2022-12-11T03:53:01.804Z,101176.69
2022-12-11T03:55:30.478Z,101164.72
2022-12-11T03:57:57.334Z,101168.09
2022-12-11T04:00:24.239Z,101162.13
2022-12-11T04:03:13.298Z,101163.00
2022-12-11T04:05:43.837Z,101157.88
2022-12-11T04:08:11.310Z,101160.47
2022-12-11T04:10:38.627Z,101158.75
2022-12-11T04:13:05.379Z,101160.47
2022-12-11T04:15:32.299Z,101161.34
2022-12-11T04:18:17.705Z,101163.91
2022-12-11T04:21:03.064Z,101164.75
2022-12-11T04:23:48.758Z,101166.47
2022-12-11T04:26:18.836Z,101169.03
2022-12-11T04:28:47.527Z,101173.31
2022-12-11T04:31:20.145Z,101180.16
2022-12-11T04:33:47.529Z,101175.03
2022-12-11T04:36:15.220Z,101179.31
2022-12-11T04:38:42.032Z,101173.31
2022-12-11T04:41:12.059Z,101172.44
2022-12-11T04:43:39.456Z,101168.16
2022-12-11T04:46:08.969Z,101170.75
2022-12-11T04:48:36.294Z,101168.19
2022-12-11T04:51:03.276Z,101175.88
2022-12-11T04:53:30.561Z,101173.28
2022-12-11T04:55:57.373Z,101172.44
2022-12-11T04:58:25.099Z,101175.00
2022-12-11T05:00:52.159Z,101174.16
2022-12-11T05:03:19.453Z,101173.31
2022-12-11T05:05:51.453Z,101182.69
2022-12-11T05:08:19.436Z,101181.00
2022-12-11T05:10:55.816Z,101179.28
2022-12-11T05:13:22.572Z,101179.31
2022-12-11T05:15:49.367Z,101179.31
2022-12-11T05:18:16.244Z,101182.72
2022-12-11T05:20:42.982Z,101180.13
2022-12-11T05:23:09.786Z,101190.38
2022-12-11T05:25:36.529Z,101198.94
2022-12-11T05:28:03.713Z,101184.41
2022-12-11T05:30:30.431Z,101183.56
2022-12-11T05:32:57.134Z,101188.72
2022-12-11T05:35:23.941Z,101183.56
2022-12-11T05:37:50.627Z,101191.28
2022-12-11T05:40:17.337Z,101203.22
2022-12-11T05:42:44.241Z,101192.09
2022-12-11T05:45:11.549Z,101191.22
2022-12-11T05:47:38.467Z,101180.13
2022-12-11T05:50:05.447Z,101186.13
2022-12-11T05:52:32.525Z,101177.56
2022-12-11T05:54:59.313Z,101174.16
2022-12-11T05:57:26.084Z,101175.88
2022-12-11T05:59:52.823Z,101176.69
2022-12-11T06:02:19.663Z,101176.69
2022-12-11T06:04:46.623Z,101184.38
2022-12-11T06:07:13.659Z,101184.38
2022-12-11T06:09:40.357Z,101176.69
2022-12-11T06:12:07.155Z,101183.53
2022-12-11T06:14:33.915Z,101170.72
2022-12-11T06:17:01.656Z,101170.75
2022-12-11T06:19:32.013Z,101171.59
2022-12-11T06:22:03.380Z,101169.84
2022-12-11T06:24:30.195Z,101162.19
2022-12-11T06:26:56.962Z,101155.34
2022-12-11T06:29:23.738Z,101168.19
2022-12-11T06:31:50.654Z,101163.91
2022-12-11T06:34:17.385Z,101176.72
2022-12-11T06:36:44.151Z,101182.69
2022-12-11T06:39:10.998Z,101193.81
2022-12-11T06:41:37.963Z,101186.09
2022-12-11T06:44:04.692Z,101186.94
2022-12-11T06:46:31.528Z,101188.66
2022-12-11T06:48:58.253Z,101185.22
2022-12-11T06:51:25.020Z,101175.81
2022-12-11T06:53:56.871Z,101173.25
2022-12-11T06:56:24.934Z,101174.13
2022-12-11T06:58:52.213Z,101169.81
2022-12-11T07:01:21.972Z,101184.31
2022-12-11T07:03:49.331Z,101182.59
2022-12-11T07:06:16.284Z,101181.72
2022-12-11T07:08:43.695Z,101180.88
2022-12-11T07:11:13.588Z,101183.44
2022-12-11T07:13:42.104Z,101182.59
2022-12-11T07:16:13.844Z,101185.09
2022-12-11T07:18:43.750Z,101187.66
2022-12-11T07:21:13.199Z,101192.75
2022-12-11T07:23:40.708Z,101185.00
2022-12-11T07:26:10.478Z,101186.75
2022-12-11T07:28:37.632Z,101176.47
2022-12-11T07:31:13.405Z,101179.03
2022-12-11T07:33:41.099Z,101184.19
2022-12-11T07:36:10.111Z,101191.84
2022-12-11T07:38:37.343Z,101184.97
2022-12-11T07:41:06.266Z,101196.09
2022-12-11T07:43:34.446Z,101196.97
2022-12-11T07:46:08.786Z,101202.09
2022-12-11T07:48:36.740Z,101206.38
2022-12-11T07:51:20.034Z,101214.09
2022-12-11T07:53:49.837Z,101212.41
2022-12-11T07:56:17.910Z,101210.69
2022-12-11T07:58:45.732Z,101219.25
2022-12-11T08:01:21.591Z,101220.97
2022-12-11T08:03:49.112Z,101214.16
2022-12-11T08:06:15.858Z,101225.25
2022-12-11T08:08:43.265Z,101219.31
2022-12-11T08:11:13.146Z,101220.13
2022-12-11T08:13:41.031Z,101223.59
2022-12-11T08:16:10.651Z,101216.69
2022-12-11T08:18:37.743Z,101232.06
2022-12-11T08:21:09.896Z,101225.25
2022-12-11T08:23:37.259Z,101232.94
2022-12-11T08:26:06.019Z,101232.09
2022-12-11T08:28:33.560Z,101227.78
2022-12-11T08:31:00.487Z,101232.06
2022-12-11T08:33:27.222Z,101235.44
2022-12-11T08:35:53.996Z,101237.16
2022-12-11T08:38:25.132Z,101231.16
2022-12-11T08:40:52.368Z,101239.69
2022-12-11T08:43:19.090Z,101237.97
2022-12-11T08:45:47.169Z,101229.44
2022-12-11T08:48:14.046Z,101228.59
2022-12-11T08:50:40.969Z,101231.13
2022-12-11T08:53:07.803Z,101241.44
2022-12-11T08:55:34.763Z,101238.00
2022-12-11T08:58:01.513Z,101239.72
2022-12-11T09:00:28.293Z,101238.00
2022-12-11T09:02:55.019Z,101245.69
2022-12-11T09:05:21.732Z,101245.69
2022-12-11T09:07:48.572Z,101248.25
2022-12-11T09:10:15.295Z,101244.88
2022-12-11T09:12:42.794Z,101251.69
2022-12-11T09:15:10.365Z,101247.44
2022-12-11T09:17:37.486Z,101246.56
2022-12-11T09:20:05.099Z,101249.97
2022-12-11T09:22:33.703Z,101246.56
2022-12-11T09:25:00.544Z,101248.28
2022-12-11T09:27:27.380Z,101234.63
2022-12-11T09:29:54.101Z,101237.22
2022-12-11T09:32:21.026Z,101236.31
2022-12-11T09:34:50.975Z,101252.50
2022-12-11T09:37:17.865Z,101247.41
2022-12-11T09:39:44.768Z,101241.34
2022-12-11T09:42:41.465Z,101248.19
2022-12-11T09:45:15.256Z,101249.88
2022-12-11T09:47:46.039Z,101248.19
2022-12-11T09:50:29.958Z,101243.88
2022-12-11T09:53:05.627Z,101248.22
2022-12-11T09:55:55.750Z,101246.56
2022-12-11T09:58:37.710Z,101255.19
2022-12-11T10:01:29.150Z,101255.25
2022-12-11T10:04:13.901Z,101256.97
2022-12-11T10:06:52.603Z,101250.19
2022-12-11T10:09:30.560Z,101248.50
2022-12-11T10:12:18.426Z,101257.94
2022-12-11T10:15:06.729Z,101255.41
2022-12-11T10:17:35.243Z,101249.44
2022-12-11T10:20:39.567Z,101258.03
2022-12-11T10:23:09.204Z,101252.91
2022-12-11T10:25:49.936Z,101257.22
2022-12-11T10:28:19.110Z,101256.41
2022-12-11T10:31:08.846Z,101256.38
2022-12-11T10:33:54.147Z,101257.28
2022-12-11T10:36:27.743Z,101258.19
2022-12-11T10:38:54.972Z,101258.19
2022-12-11T10:41:39.475Z,101264.22
2022-12-11T10:44:16.912Z,101253.94
2022-12-11T10:46:44.483Z,101250.53
2022-12-11T10:49:23.153Z,101259.97
2022-12-11T10:51:50.664Z,101258.28
2022-12-11T10:54:29.621Z,101266.84
2022-12-11T10:56:57.126Z,101248.84
2022-12-11T10:59:30.811Z,101257.41
2022-12-11T11:01:58.318Z,101254.00
2022-12-11T11:04:32.351Z,101254.00
2022-12-11T11:07:24.345Z,101258.28
2022-12-11T11:10:03.035Z,101258.28
2022-12-11T11:12:29.829Z,101260.00
2022-12-11T11:15:05.473Z,101261.72
2022-12-11T11:17:35.761Z,101248.88
2022-12-11T11:20:12.183Z,101244.56
2022-12-11T11:22:44.631Z,101241.16
2022-12-11T11:25:26.333Z,101230.88
2022-12-11T11:27:55.065Z,101238.59
2022-12-11T11:30:33.528Z,101239.44
2022-12-11T11:33:16.880Z,101241.13
2022-12-11T11:35:58.707Z,101238.56
2022-12-11T11:38:38.272Z,101232.59
2022-12-11T11:41:17.263Z,101236.84
2022-12-11T11:43:56.479Z,101231.69
2022-12-11T11:46:46.320Z,101230.84
2022-12-11T11:49:19.191Z,101229.13
2022-12-11T11:51:55.103Z,101223.09
2022-12-11T11:54:29.846Z,101223.06
2022-12-11T11:56:57.919Z,101217.94
2022-12-11T11:59:34.689Z,101216.19
2022-12-11T12:02:01.501Z,101214.47
2022-12-11T12:04:33.781Z,101209.31
2022-12-11T12:07:30.685Z,101215.31
2022-12-11T12:10:26.666Z,101217.84
2022-12-11T12:13:01.505Z,101222.97
2022-12-11T12:15:39.981Z,101216.09
2022-12-11T12:18:28.723Z,101225.50
2022-12-11T12:21:08.607Z,101222.91
2022-12-11T12:23:48.480Z,101219.44
2022-12-11T12:26:29.663Z,101221.16
2022-12-11T12:28:59.293Z,101219.38
2022-12-11T21:49:00.955Z,101111.50
2022-12-11T21:51:36.484Z,101102.03
2022-12-11T21:54:06.526Z,101104.56
2022-12-11T21:56:33.862Z,101103.72
2022-12-11T21:59:01.714Z,101104.56
2022-12-11T22:01:33.859Z,101101.97
2022-12-11T22:04:01.454Z,101101.13
2022-12-11T22:06:28.195Z,101097.69
2022-12-11T22:08:55.124Z,101103.72
2022-12-11T22:11:26.112Z,101102.81
2022-12-11T22:13:52.926Z,101101.13
2022-12-11T22:16:19.829Z,101097.69
2022-12-11T22:18:46.835Z,101091.69
2022-12-11T22:21:14.218Z,101093.38
2022-12-11T22:23:41.835Z,101085.69
2022-12-11T22:26:10.070Z,101098.53
2022-12-11T22:28:36.845Z,101083.06
2022-12-11T22:31:03.651Z,101089.09
2022-12-11T22:33:30.474Z,101085.69
2022-12-11T22:35:58.731Z,101087.38
2022-12-11T22:38:26.188Z,101084.81
2022-12-11T22:40:54.503Z,101085.69
2022-12-11T22:43:21.869Z,101083.13
2022-12-11T22:45:48.712Z,101085.69
2022-12-11T22:48:15.613Z,101082.28
2022-12-11T22:50:43.653Z,101087.44
2022-12-11T22:53:10.375Z,101087.44
2022-12-11T22:55:40.284Z,101083.13
2022-12-11T22:58:07.525Z,101083.13
2022-12-11T23:00:34.687Z,101080.56
2022-12-11T23:03:02.387Z,101088.25
2022-12-11T23:05:29.743Z,101086.53
2022-12-11T23:07:56.591Z,101084.81
2022-12-11T23:10:23.716Z,101079.66
2022-12-11T23:12:50.652Z,101078.81
2022-12-11T23:15:18.384Z,101077.09
2022-12-11T23:17:45.128Z,101070.25
2022-12-11T23:20:12.191Z,101069.41
2022-12-11T23:22:39.050Z,101068.56
2022-12-11T23:25:06.324Z,101066.88
2022-12-11T23:27:33.013Z,101066.88
2022-12-11T23:29:59.829Z,101066.06
2022-12-11T23:32:26.659Z,101065.19
2022-12-11T23:34:53.340Z,101060.94
2022-12-11T23:37:20.187Z,101054.06
2022-12-11T23:39:47.007Z,101060.06
2022-12-11T23:42:14.262Z,101060.06
2022-12-11T23:44:41.359Z,101061.78
2022-12-11T23:47:08.188Z,101051.50
2022-12-11T23:49:34.948Z,101071.19
2022-12-11T23:52:02.028Z,101060.06
2022-12-11T23:54:28.780Z,101056.63
2022-12-11T23:56:55.521Z,101055.81
2022-12-11T23:59:22.420Z,101051.50
